Time;durP1;ratioP1;P1;durP2;ratioP2;P2;SDS_P1;SDS_P2;PMS_P1;PMS_P2;Temp;Humidity;BMP_temperature;BMP_pressure;BME280_temperature;BME280_humidity;BME280_pressure;Samples;Min_cycle;Max_cycle;Signal;HPM_P1;HPM_P2
2022/05/05 00:01:32;;;;;;;10.17;7.60;;;4.60;1.00;;;;;;5110029;28;20475;-54
2022/05/05 00:03:58;;;;;;;14.33;7.20;;;4.60;1.00;;;;;;5106449;28;20437;-54
2022/05/05 00:06:25;;;;;;;10.63;7.63;;;4.50;1.00;;;;;;5103466;27;20561;-54
2022/05/05 00:08:50;;;;;;;11.83;7.70;;;4.50;1.00;;;;;;5109850;27;20430;-54
2022/05/05 00:16:45;;;;;;;12.90;7.13;;;4.40;1.00;;;;;;5107709;27;20445;-54
2022/05/05 00:19:10;;;;;;;13.20;7.23;;;4.40;1.00;;;;;;5107509;27;20970;-54
2022/05/05 00:21:38;;;;;;;19.03;8.47;;;4.30;1.00;;;;;;5109677;28;20204;-54
2022/05/05 00:24:05;;;;;;;12.13;8.10;;;4.30;1.00;;;;;;5099492;28;20197;-53
2022/05/05 00:26:30;;;;;;;12.67;7.37;;;4.30;1.00;;;;;;5106777;27;20542;-54
2022/05/05 00:28:56;;;;;;;13.60;8.23;;;4.30;16.30;;;;;;5105828;27;20438;-54
2022/05/05 00:31:21;;;;;;;13.60;7.93;;;4.20;30.80;;;;;;5110173;28;20261;-54
2022/05/05 00:33:48;;;;;;;10.97;7.67;;;4.20;66.50;;;;;;5105602;27;20184;-54
2022/05/05 00:36:14;;;;;;;12.10;7.93;;;4.20;79.50;;;;;;5109701;28;20192;-54
2022/05/05 00:38:40;;;;;;;9.93;7.20;;;4.20;94.20;;;;;;5106577;28;20450;-54
2022/05/05 00:41:05;;;;;;;13.13;8.27;;;4.20;95.50;;;;;;5109743;28;20200;-54
2022/05/05 00:43:33;;;;;;;11.23;7.93;;;4.10;99.60;;;;;;5101579;28;20283;-53
2022/05/05 00:45:58;;;;;;;12.60;8.23;;;4.20;99.90;;;;;;5109873;28;20207;-54
2022/05/05 00:48:28;;;;;;;20.83;8.03;;;4.10;96.00;;;;;;5108273;28;20434;-54
2022/05/05 00:50:54;;;;;;;13.87;8.80;;;4.10;78.50;;;;;;5108727;28;20280;-55
2022/05/05 00:53:20;;;;;;;13.77;8.83;;;4.10;91.30;;;;;;5097307;28;20418;-54
2022/05/05 00:55:46;;;;;;;12.83;9.57;;;4.00;99.90;;;;;;5106074;28;20442;-54
2022/05/05 00:58:14;;;;;;;11.00;8.60;;;4.00;99.90;;;;;;5109507;28;20200;-54
2022/05/05 01:00:40;;;;;;;12.33;7.93;;;4.00;99.90;;;;;;5106503;28;21021;-54
2022/05/05 01:03:09;;;;;;;18.03;8.40;;;4.00;99.90;;;;;;5102336;28;20428;-54
2022/05/05 01:05:38;;;;;;;17.20;8.73;;;3.90;99.90;;;;;;5107231;28;20457;-54
2022/05/05 01:08:04;;;;;;;13.00;8.50;;;3.90;99.90;;;;;;5106499;28;20430;-54
2022/05/05 01:10:30;;;;;;;11.93;8.33;;;3.90;99.90;;;;;;5090199;28;20476;-54
2022/05/05 01:12:55;;;;;;;11.20;8.60;;;3.90;99.90;;;;;;5107756;28;20520;-54
2022/05/05 01:15:22;;;;;;;13.80;8.23;;;3.80;99.90;;;;;;5096218;28;20205;-54
2022/05/05 01:17:47;;;;;;;16.27;9.67;;;3.80;99.90;;;;;;5109744;28;20199;-54
2022/05/05 01:20:18;;;;;;;11.97;8.60;;;3.80;99.90;;;;;;5107132;28;20489;-54
2022/05/05 01:22:44;;;;;;;17.17;9.50;;;3.80;99.90;;;;;;5100703;28;20695;-54
2022/05/05 01:28:12;;;;;;;11.83;7.90;;;3.70;99.90;;;;;;5101280;28;20187;-54
2022/05/05 01:30:43;;;;;;;10.17;8.03;;;3.70;99.90;;;;;;5107333;28;20432;-54
2022/05/05 01:33:13;;;;;;;18.37;8.93;;;3.60;99.90;;;;;;5094025;28;20458;-53
2022/05/05 01:35:39;;;;;;;14.33;8.87;;;3.60;99.90;;;;;;5100034;28;20440;-54
2022/05/05 01:38:09;;;;;;;17.40;8.87;;;3.60;99.90;;;;;;5110955;28;20446;-54
2022/05/05 01:40:36;;;;;;;18.93;9.43;;;3.50;99.90;;;;;;5111294;27;20438;-54
2022/05/05 01:43:08;;;;;;;11.37;8.20;;;3.50;99.90;;;;;;5107451;28;20907;-54
2022/05/05 01:45:34;;;;;;;13.33;8.10;;;3.50;99.90;;;;;;5112612;28;20856;-54
2022/05/05 01:48:00;;;;;;;13.53;9.10;;;3.50;99.90;;;;;;5103220;28;20452;-54
2022/05/05 01:50:26;;;;;;;13.80;9.50;;;3.50;99.90;;;;;;5108811;28;20939;-54
2022/05/05 01:52:52;;;;;;;17.20;9.60;;;3.50;99.90;;;;;;5112033;28;20271;-55
2022/05/05 01:55:21;;;;;;;15.70;9.17;;;3.50;99.90;;;;;;5103707;28;20271;-54
2022/05/05 01:57:47;;;;;;;13.70;8.10;;;3.40;99.90;;;;;;5110979;28;20478;-55
2022/05/05 02:00:14;;;;;;;13.77;9.40;;;3.40;99.90;;;;;;5108383;27;20441;-54
2022/05/05 02:02:41;;;;;;;13.83;8.63;;;3.40;99.90;;;;;;5111058;27;20196;-54
2022/05/05 02:05:07;;;;;;;14.17;8.60;;;3.30;99.90;;;;;;5106077;28;20472;-54
2022/05/05 02:07:32;;;;;;;16.57;8.70;;;3.30;99.90;;;;;;5112228;27;20803;-54
2022/05/05 02:10:01;;;;;;;14.77;8.87;;;3.30;99.90;;;;;;5110913;27;20438;-54
2022/05/05 02:12:28;;;;;;;13.73;9.60;;;3.30;99.90;;;;;;5112176;28;20191;-55
2022/05/05 02:14:54;;;;;;;13.10;9.30;;;3.20;1.00;;;;;;5102976;28;20450;-54
2022/05/05 02:17:19;;;;;;;12.20;9.20;;;3.20;1.00;;;;;;5108479;28;21092;-54
2022/05/05 02:19:45;;;;;;;18.80;9.23;;;3.20;1.00;;;;;;5110312;27;20233;-55
2022/05/05 02:22:11;;;;;;;17.77;9.07;;;3.20;99.90;;;;;;5111062;27;20261;-54
2022/05/05 02:24:36;;;;;;;19.33;9.67;;;3.20;1.00;;;;;;5107485;27;20193;-55
2022/05/05 02:27:02;;;;;;;15.17;9.90;;;3.10;1.00;;;;;;5112756;28;21167;-55
2022/05/05 02:29:27;;;;;;;13.30;9.00;;;3.10;1.00;;;;;;5110517;27;20312;-55
2022/05/05 02:31:53;;;;;;;17.70;9.00;;;3.10;99.90;;;;;;5111440;27;20196;-54
2022/05/05 02:34:18;;;;;;;18.30;9.47;;;3.00;99.90;;;;;;5109748;28;20684;-54
2022/05/05 02:39:28;;;;;;;14.27;8.80;;;3.00;1.00;;;;;;5098990;28;20203;-55
2022/05/05 02:41:53;;;;;;;13.80;9.17;;;3.00;1.00;;;;;;5110812;27;20449;-54
2022/05/05 02:44:19;;;;;;;14.03;9.23;;;2.90;1.00;;;;;;5110473;27;20200;-54
2022/05/05 02:46:44;;;;;;;15.90;9.63;;;3.00;1.00;;;;;;5104361;27;20247;-54
2022/05/05 02:49:12;;;;;;;13.40;9.37;;;3.00;1.00;;;;;;5106656;28;20196;-55
2022/05/05 02:51:38;;;;;;;14.80;9.90;;;3.00;1.00;;;;;;5110398;27;20188;-55
2022/05/05 02:56:48;;;;;;;14.93;9.37;;;2.90;1.00;;;;;;5106205;28;20565;-54
2022/05/05 02:59:13;;;;;;;15.23;9.63;;;2.90;1.00;;;;;;5105761;27;20435;-54
2022/05/05 03:01:39;;;;;;;13.03;9.67;;;2.90;1.00;;;;;;5096407;28;20898;-54
2022/05/05 03:04:04;;;;;;;13.60;9.30;;;2.90;1.00;;;;;;5112638;28;20168;-52
2022/05/05 03:06:30;;;;;;;19.33;10.23;;;3.00;1.00;;;;;;5112442;28;20215;-55
2022/05/05 03:08:55;;;;;;;13.80;9.60;;;3.00;1.00;;;;;;5101894;27;20233;-55
2022/05/05 03:11:21;;;;;;;12.00;8.87;;;2.90;1.00;;;;;;5108335;28;20181;-54
2022/05/05 03:13:46;;;;;;;14.53;9.00;;;2.90;1.00;;;;;;5112337;28;20176;-54
2022/05/05 03:16:12;;;;;;;17.57;9.40;;;2.90;1.00;;;;;;5104236;28;20713;-55
2022/05/05 03:18:40;;;;;;;12.37;10.33;;;2.90;1.00;;;;;;5111510;27;20228;-54
2022/05/05 03:21:06;;;;;;;18.17;9.60;;;2.90;1.00;;;;;;5097313;28;20201;-55
2022/05/05 03:23:32;;;;;;;14.30;9.70;;;2.90;1.00;;;;;;5091914;28;20455;-55
2022/05/05 03:25:58;;;;;;;14.80;9.40;;;2.90;1.00;;;;;;5092614;28;20498;-54
2022/05/05 03:28:23;;;;;;;16.67;10.00;;;2.80;1.00;;;;;;5104745;28;20560;-54
2022/05/05 03:30:49;;;;;;;15.37;9.10;;;2.90;1.00;;;;;;5093209;28;20510;-55
2022/05/05 03:33:15;;;;;;;17.63;9.50;;;2.80;1.00;;;;;;5111798;28;20207;-55
2022/05/05 03:35:41;;;;;;;12.00;8.87;;;2.80;1.00;;;;;;5096535;28;20561;-55
2022/05/05 03:38:06;;;;;;;16.00;9.93;;;2.80;1.00;;;;;;5111008;28;20314;-54
2022/05/05 03:40:32;;;;;;;13.57;9.40;;;2.80;1.00;;;;;;5108832;27;20928;-54
2022/05/05 03:42:57;;;;;;;16.53;9.17;;;2.80;1.00;;;;;;5111713;28;20188;-55
2022/05/05 03:45:23;;;;;;;15.73;9.90;;;2.90;1.00;;;;;;5098834;28;20232;-54
2022/05/05 03:47:49;;;;;;;15.00;9.47;;;2.80;1.00;;;;;;5104983;28;20637;-54
2022/05/05 03:50:15;;;;;;;18.37;10.93;;;2.90;1.00;;;;;;5108659;27;20223;-51
2022/05/05 03:52:40;;;;;;;15.33;9.40;;;2.90;1.00;;;;;;5110331;28;20442;-50
2022/05/05 03:55:07;;;;;;;17.87;10.67;;;3.00;1.00;;;;;;5104079;28;20664;-51
2022/05/05 03:57:33;;;;;;;19.47;9.30;;;3.00;1.00;;;;;;5110763;28;20192;-50
2022/05/05 03:59:59;;;;;;;17.03;10.10;;;3.00;1.00;;;;;;5108688;28;20483;-50
2022/05/05 04:02:25;;;;;;;16.87;10.80;;;3.10;1.00;;;;;;5110715;28;20523;-50
2022/05/05 04:04:50;;;;;;;17.53;10.70;;;3.10;1.00;;;;;;5109122;28;20212;-50
2022/05/05 04:07:16;;;;;;;14.63;9.57;;;3.10;1.00;;;;;;5111227;28;20181;-50
2022/05/05 04:09:41;;;;;;;17.03;10.03;;;3.20;1.00;;;;;;5106480;27;20192;-51
2022/05/05 04:12:07;;;;;;;14.80;9.60;;;3.20;1.00;;;;;;5110326;28;20204;-50
2022/05/05 04:14:34;;;;;;;26.33;10.50;;;3.20;1.00;;;;;;5100861;28;20189;-50
2022/05/05 04:17:00;;;;;;;15.60;9.73;;;3.30;1.00;;;;;;5094482;28;20927;-50
2022/05/05 04:19:26;;;;;;;22.53;11.00;;;3.40;1.00;;;;;;5108140;28;20472;-50
2022/05/05 04:21:52;;;;;;;15.43;10.73;;;3.40;1.00;;;;;;5107835;28;20438;-50
2022/05/05 04:24:17;;;;;;;13.93;9.80;;;3.50;1.00;;;;;;5102644;27;20203;-50
2022/05/05 04:26:45;;;;;;;17.97;10.27;;;3.60;1.00;;;;;;5110667;28;20294;-50
2022/05/05 04:29:12;;;;;;;18.30;11.37;;;3.70;99.90;;;;;;5101973;28;20188;-50
2022/05/05 04:31:39;;;;;;;18.43;10.37;;;3.80;99.90;;;;;;5108908;28;20426;-50
2022/05/05 04:34:04;;;;;;;15.97;9.30;;;3.80;99.90;;;;;;5111001;28;20402;-50
2022/05/05 04:36:35;;;;;;;14.83;10.03;;;3.90;99.90;;;;;;5094656;27;20450;-50
2022/05/05 04:39:04;;;;;;;20.50;10.03;;;4.00;99.90;;;;;;5105594;28;20207;-50
2022/05/05 04:41:30;;;;;;;17.23;9.90;;;4.10;99.90;;;;;;5099486;28;20430;-50
2022/05/05 04:43:56;;;;;;;18.47;10.00;;;4.20;99.90;;;;;;5104472;28;20440;-50
2022/05/05 04:46:21;;;;;;;20.57;10.40;;;4.30;99.90;;;;;;5098668;28;20224;-50
2022/05/05 04:48:48;;;;;;;13.73;8.87;;;4.50;99.90;;;;;;5101930;28;20181;-50
2022/05/05 04:51:14;;;;;;;18.30;10.50;;;4.60;99.90;;;;;;5091988;28;20234;-50
2022/05/05 04:53:40;;;;;;;20.47;10.20;;;4.80;99.90;;;;;;5098401;28;20425;-50
2022/05/05 04:56:06;;;;;;;17.40;9.27;;;4.90;99.90;;;;;;5103213;28;20506;-50
2022/05/05 04:58:33;;;;;;;14.80;9.17;;;5.00;99.90;;;;;;5102130;28;20202;-50
2022/05/05 05:00:59;;;;;;;18.40;9.10;;;5.10;99.90;;;;;;5108651;28;20434;-50
2022/05/05 05:03:35;;;;;;;14.57;9.50;;;5.10;99.90;;;;;;5109916;28;20438;-50
2022/05/05 05:06:01;;;;;;;15.40;10.03;;;5.10;99.90;;;;;;5099068;28;20541;-50
2022/05/05 05:08:27;;;;;;;21.10;10.00;;;5.20;95.70;;;;;;5107389;28;20902;-50
2022/05/05 05:10:52;;;;;;;16.93;8.70;;;5.30;92.20;;;;;;5109791;28;20464;-50
2022/05/05 05:13:18;;;;;;;15.57;9.43;;;5.30;84.00;;;;;;5102922;28;20189;-50
2022/05/05 05:15:43;;;;;;;15.73;8.60;;;5.40;58.10;;;;;;5107383;27;20192;-50
2022/05/05 05:18:09;;;;;;;18.90;9.20;;;5.50;50.20;;;;;;5108129;27;20188;-50
2022/05/05 05:20:35;;;;;;;16.43;9.07;;;5.60;34.40;;;;;;5113867;27;20622;-50
2022/05/05 05:23:00;;;;;;;16.00;8.37;;;5.70;25.50;;;;;;5105273;28;20196;-50
2022/05/05 05:25:26;;;;;;;14.20;8.83;;;5.90;1.00;;;;;;5113012;28;20601;-50
2022/05/05 05:27:51;;;;;;;12.00;8.00;;;6.00;1.00;;;;;;5106027;27;20196;-50
2022/05/05 05:30:17;;;;;;;13.60;7.90;;;6.10;1.00;;;;;;5113059;28;20196;-50
2022/05/05 05:32:42;;;;;;;15.10;8.30;;;6.30;1.00;;;;;;5104467;27;20271;-50
2022/05/05 05:35:08;;;;;;;11.90;8.10;;;6.60;1.00;;;;;;5083894;28;20284;-50
2022/05/05 05:37:33;;;;;;;9.10;7.50;;;6.90;1.00;;;;;;5107280;27;20207;-50
2022/05/05 05:39:59;;;;;;;13.67;6.77;;;7.30;1.00;;;;;;5107264;28;20196;-50
2022/05/05 05:42:25;;;;;;;11.80;6.03;;;7.60;1.00;;;;;;5106569;27;20203;-50
2022/05/05 05:44:50;;;;;;;14.77;6.00;;;7.90;1.00;;;;;;5111724;28;20188;-50
2022/05/05 05:47:16;;;;;;;17.47;6.50;;;8.10;1.00;;;;;;5109196;27;20218;-50
2022/05/05 05:49:41;;;;;;;8.03;5.17;;;8.40;1.00;;;;;;5111157;28;20193;-49
2022/05/05 05:52:07;;;;;;;12.23;6.27;;;8.60;1.00;;;;;;5111383;28;20203;-50
2022/05/05 05:54:33;;;;;;;8.03;5.37;;;8.80;99.90;;;;;;5109405;28;20250;-50
2022/05/05 05:56:58;;;;;;;10.77;6.00;;;9.00;99.90;;;;;;5107434;28;20210;-49
2022/05/05 05:59:24;;;;;;;13.67;5.50;;;9.20;99.90;;;;;;5112339;28;20200;-49
2022/05/05 06:04:33;;;;;;;11.33;4.97;;;9.60;99.90;;;;;;5105548;28;20235;-49
2022/05/05 06:07:00;;;;;;;7.57;5.13;;;9.90;99.90;;;;;;5106003;28;20516;-52
2022/05/05 06:09:25;;;;;;;6.37;3.90;;;10.10;99.90;;;;;;5113373;28;20199;-50
2022/05/05 06:11:51;;;;;;;6.00;4.20;;;10.40;99.90;;;;;;5112671;28;20786;-49
2022/05/05 06:14:17;;;;;;;7.77;4.10;;;10.50;99.90;;;;;;5113616;28;20185;-50
2022/05/05 06:16:42;;;;;;;10.40;3.80;;;10.60;99.90;;;;;;5108863;28;20204;-50
2022/05/05 06:19:08;;;;;;;9.00;4.13;;;10.80;99.90;;;;;;5101306;28;20713;-50
2022/05/05 06:21:33;;;;;;;9.53;4.20;;;10.90;99.90;;;;;;5093107;28;20643;-50
2022/05/05 06:23:59;;;;;;;7.23;2.93;;;11.10;99.90;;;;;;5110361;28;20282;-49
2022/05/05 06:26:27;;;;;;;4.63;3.10;;;11.20;99.90;;;;;;5112320;28;20258;-49
2022/05/05 06:28:54;;;;;;;5.17;2.83;;;11.00;99.90;;;;;;5112113;28;20299;-50
2022/05/05 06:31:19;;;;;;;14.00;3.27;;;10.90;99.90;;;;;;5110326;28;21078;-49
2022/05/05 06:33:45;;;;;;;9.43;3.30;;;10.80;99.90;;;;;;5113148;28;20402;-50
2022/05/05 06:36:11;;;;;;;6.27;3.27;;;11.00;99.90;;;;;;5111955;28;20627;-50
2022/05/05 06:38:37;;;;;;;5.70;2.60;;;11.30;99.90;;;;;;5111680;28;20228;-49
2022/05/05 06:41:02;;;;;;;8.80;3.30;;;11.60;99.90;;;;;;5112920;28;20410;-49
2022/05/05 06:43:29;;;;;;;8.20;3.40;;;11.70;99.90;;;;;;5112367;28;20199;-49
2022/05/05 06:45:55;;;;;;;5.07;2.70;;;11.80;99.90;;;;;;5112544;28;20204;-49
2022/05/05 06:48:21;;;;;;;4.07;2.93;;;11.70;99.90;;;;;;5111738;28;20510;-50
2022/05/05 06:50:46;;;;;;;9.83;2.77;;;11.80;99.90;;;;;;5112018;28;20192;-50
2022/05/05 06:53:12;;;;;;;6.70;2.47;;;11.80;99.90;;;;;;5111945;28;20449;-50
2022/05/05 06:55:37;;;;;;;5.47;3.00;;;11.80;99.90;;;;;;5111709;28;20200;-49
2022/05/05 06:58:03;;;;;;;4.40;2.50;;;11.80;99.90;;;;;;5112602;28;20189;-49
2022/05/05 07:01:51;;;;;;;8.93;2.40;;;11.90;99.90;;;;;;5111712;28;20188;-50
2022/05/05 07:03:14;;;;;;;6.27;2.53;;;12.00;99.90;;;;;;5108246;28;20214;-49
2022/05/05 07:05:40;;;;;;;5.77;2.80;;;12.10;99.90;;;;;;5112599;28;20545;-50
2022/05/05 07:08:05;;;;;;;3.43;2.40;;;12.20;99.90;;;;;;5112657;28;20657;-49
2022/05/05 07:10:52;;;;;;;5.87;2.73;;;12.40;99.90;;;;;;5112061;28;20188;-49
2022/05/05 07:13:17;;;;;;;5.00;2.70;;;12.50;99.90;;;;;;5113141;28;20192;-49
2022/05/05 07:15:43;;;;;;;13.67;2.90;;;12.60;99.90;;;;;;5113021;28;20442;-49
2022/05/05 07:18:09;;;;;;;10.43;2.73;;;12.90;99.90;;;;;;5113468;28;20196;-49
2022/05/05 07:20:34;;;;;;;7.50;2.97;;;13.10;99.90;;;;;;5113111;28;20457;-49
2022/05/05 07:23:00;;;;;;;7.10;2.80;;;13.30;99.90;;;;;;5111770;28;20713;-49
2022/05/05 07:25:27;;;;;;;9.33;2.93;;;13.40;99.90;;;;;;5113375;28;20276;-54
2022/05/05 07:27:53;;;;;;;6.90;2.80;;;13.20;99.90;;;;;;5112672;28;20184;-49
2022/05/05 07:30:19;;;;;;;4.37;2.50;;;13.20;99.90;;;;;;5112737;28;20503;-50
2022/05/05 07:32:45;;;;;;;6.10;2.40;;;13.40;99.90;;;;;;5112202;28;20184;-49
2022/05/05 07:35:11;;;;;;;3.00;2.10;;;13.70;99.90;;;;;;5112748;28;20942;-49
2022/05/05 07:37:37;;;;;;;6.07;3.63;;;14.10;99.90;;;;;;5112695;28;20300;-50
2022/05/05 07:40:07;;;;;;;4.30;2.80;;;14.30;99.90;;;;;;5113253;28;20418;-49
2022/05/05 07:42:33;;;;;;;5.13;2.63;;;14.50;99.90;;;;;;5112349;28;20938;-50
2022/05/05 07:44:58;;;;;;;6.87;2.30;;;14.50;99.90;;;;;;5112373;28;20457;-49
2022/05/05 07:47:25;;;;;;;5.97;2.53;;;14.50;99.90;;;;;;5113114;28;20240;-49
2022/05/05 07:49:51;;;;;;;8.30;2.53;;;14.70;99.90;;;;;;5112355;28;20711;-50
2022/05/05 07:52:17;;;;;;;4.93;2.87;;;14.70;99.90;;;;;;5112291;28;20410;-50
2022/05/05 07:54:44;;;;;;;8.77;3.10;;;14.80;99.90;;;;;;5092704;28;20414;-49
2022/05/05 07:57:12;;;;;;;7.70;3.80;;;15.00;99.90;;;;;;5098621;28;20334;-49
2022/05/05 07:59:38;;;;;;;7.03;2.60;;;14.90;99.90;;;;;;5112192;28;20464;-50
2022/05/05 08:02:08;;;;;;;4.73;3.00;;;15.00;99.90;;;;;;5112740;28;20395;-49
2022/05/05 08:04:33;;;;;;;5.27;3.30;;;14.90;99.90;;;;;;5112012;28;20448;-50
2022/05/05 08:06:59;;;;;;;7.43;3.20;;;14.90;99.90;;;;;;5112344;28;20974;-50
2022/05/05 08:09:25;;;;;;;5.57;3.00;;;15.10;99.90;;;;;;5110481;28;20191;-50
2022/05/05 08:11:50;;;;;;;6.57;3.10;;;15.40;99.90;;;;;;5111006;28;20436;-49
2022/05/05 08:14:16;;;;;;;11.67;2.80;;;15.60;99.90;;;;;;5110019;28;20271;-51
2022/05/05 08:16:42;;;;;;;8.10;2.80;;;15.70;99.90;;;;;;5110196;28;20196;-50
2022/05/05 08:19:07;;;;;;;6.30;3.30;;;15.80;99.90;;;;;;5110174;28;20228;-49
2022/05/05 08:21:33;;;;;;;6.07;2.60;;;15.90;99.90;;;;;;5108634;28;20222;-50
2022/05/05 08:29:27;;;;;;;5.93;3.10;;;16.40;99.90;;;;;;5110261;28;20389;-52
2022/05/05 08:31:53;;;;;;;6.90;3.00;;;16.70;99.90;;;;;;5108294;28;20532;-51
2022/05/05 08:34:19;;;;;;;6.57;2.83;;;17.00;99.90;;;;;;5110967;28;20638;-52
2022/05/05 08:36:44;;;;;;;8.57;3.53;;;17.30;99.90;;;;;;5110018;28;20410;-52
2022/05/05 08:39:10;;;;;;;6.13;3.00;;;17.30;99.90;;;;;;5110838;28;20678;-51
2022/05/05 08:41:38;;;;;;;5.50;2.93;;;17.10;99.90;;;;;;5109678;28;20183;-51
2022/05/05 08:44:03;;;;;;;4.13;2.90;;;17.20;99.90;;;;;;5110721;28;20172;-52
2022/05/05 08:46:32;;;;;;;6.70;2.87;;;17.10;99.90;;;;;;5109853;28;20503;-51
2022/05/05 08:49:04;;;;;;;9.07;3.00;;;17.20;99.90;;;;;;5110685;28;20172;-51
2022/05/05 08:51:38;;;;;;;5.20;3.00;;;17.70;99.90;;;;;;5109931;28;20444;-52
2022/05/05 08:54:06;;;;;;;7.53;2.53;;;18.00;99.90;;;;;;5108793;28;20426;-52
2022/05/05 08:56:32;;;;;;;3.63;2.80;;;18.00;99.90;;;;;;5109639;28;21017;-52
2022/05/05 08:58:58;;;;;;;6.80;2.83;;;18.20;99.90;;;;;;5110634;28;20474;-51
2022/05/05 09:01:25;;;;;;;7.17;2.43;;;18.30;99.90;;;;;;5109825;28;20967;-51
2022/05/05 09:03:51;;;;;;;8.97;2.40;;;18.40;99.90;;;;;;5110776;28;20192;-52
2022/05/05 09:06:16;;;;;;;5.63;2.70;;;18.40;99.90;;;;;;5110367;28;20866;-51
2022/05/05 09:08:45;;;;;;;5.70;2.30;;;18.30;99.90;;;;;;5109627;28;20208;-52
2022/05/05 09:11:17;;;;;;;6.43;2.60;;;18.20;99.90;;;;;;5110206;28;20241;-52
2022/05/05 09:13:43;;;;;;;6.03;2.80;;;18.20;99.90;;;;;;5109711;28;20973;-51
2022/05/05 09:16:10;;;;;;;12.23;2.93;;;18.00;99.90;;;;;;5110318;28;20427;-52
2022/05/05 09:18:36;;;;;;;6.10;3.10;;;17.80;99.90;;;;;;5109535;28;20662;-52
2022/05/05 09:21:04;;;;;;;5.03;2.67;;;17.90;99.90;;;;;;5107876;28;20529;-52
2022/05/05 09:26:28;;;;;;;8.93;3.10;;;18.30;99.90;;;;;;5109562;28;20474;-51
2022/05/05 09:28:54;;;;;;;4.57;2.60;;;18.20;99.90;;;;;;5109509;28;20770;-51
2022/05/05 09:31:21;;;;;;;5.97;2.30;;;18.30;99.90;;;;;;5110330;28;20409;-51
2022/05/05 09:33:47;;;;;;;9.83;2.57;;;18.20;99.90;;;;;;5109550;28;20515;-51
2022/05/05 09:36:15;;;;;;;4.00;2.70;;;18.20;99.90;;;;;;5110148;28;21205;-52
2022/05/05 09:39:02;;;;;;;5.97;2.60;;;17.80;99.90;;;;;;5109389;28;20184;-51
2022/05/05 09:41:28;;;;;;;6.20;2.43;;;17.90;99.90;;;;;;5110095;28;20453;-51
2022/05/05 09:43:56;;;;;;;8.93;2.60;;;18.20;99.90;;;;;;5109215;28;20920;-51
2022/05/05 09:46:25;;;;;;;4.17;3.00;;;18.60;99.90;;;;;;5110017;28;20454;-52
2022/05/05 09:48:51;;;;;;;5.27;2.43;;;18.80;99.90;;;;;;5109367;28;20941;-52
2022/05/05 09:51:17;;;;;;;10.30;2.50;;;18.90;99.90;;;;;;5110164;28;20402;-52
2022/05/05 09:59:17;;;;;;;6.30;2.70;;;19.10;99.90;;;;;;5112096;28;20408;-51
2022/05/05 10:01:46;;;;;;;9.90;2.60;;;19.50;99.90;;;;;;5112949;28;20438;-52
2022/05/05 10:04:12;;;;;;;5.40;3.03;;;19.90;99.90;;;;;;5112870;28;20445;-52
2022/05/05 10:06:41;;;;;;;9.17;3.30;;;19.90;99.90;;;;;;5112887;28;20469;-52
2022/05/05 10:09:12;;;;;;;4.73;2.57;;;19.90;99.90;;;;;;5113430;28;20170;-51
2022/05/05 10:11:38;;;;;;;3.70;2.87;;;20.00;99.90;;;;;;5112894;28;20556;-51
2022/05/05 10:14:05;;;;;;;8.70;3.00;;;19.90;99.90;;;;;;5113600;28;20493;-51
2022/05/05 10:16:31;;;;;;;8.83;4.03;;;20.10;99.90;;;;;;5112337;28;20323;-51
2022/05/05 10:18:58;;;;;;;9.73;4.10;;;19.60;99.90;;;;;;5113369;28;20556;-51
2022/05/05 10:21:54;;;;;;;8.17;4.10;;;19.90;99.90;;;;;;5112741;28;20457;-52
2022/05/05 10:24:27;;;;;;;10.13;4.00;;;20.00;99.90;;;;;;5112198;28;20462;-52
2022/05/05 10:26:54;;;;;;;6.90;4.17;;;20.10;99.90;;;;;;5113018;28;20943;-52
2022/05/05 10:29:36;;;;;;;7.47;3.67;;;20.20;99.90;;;;;;5112282;28;20452;-51
2022/05/05 10:32:07;;;;;;;5.60;3.27;;;20.50;99.90;;;;;;5113163;28;20406;-51
2022/05/05 10:34:33;;;;;;;10.63;3.87;;;20.90;99.90;;;;;;5094095;28;20482;-51
2022/05/05 10:37:07;;;;;;;11.57;3.27;;;20.80;99.90;;;;;;5112977;28;20406;-52
2022/05/05 10:40:07;;;;;;;9.70;4.00;;;21.10;99.90;;;;;;5111797;28;20442;-51
2022/05/05 10:42:41;;;;;;;8.00;3.90;;;21.20;99.90;;;;;;5113012;28;20394;-53
2022/05/05 10:45:32;;;;;;;7.63;4.83;;;21.50;99.90;;;;;;5112332;28;20453;-52
2022/05/05 10:50:30;;;;;;;7.70;4.30;;;21.50;99.90;;;;;;5113048;28;20406;-52
2022/05/05 10:52:57;;;;;;;8.57;4.33;;;21.80;99.90;;;;;;5112489;28;20184;-52
2022/05/05 10:55:26;;;;;;;5.83;3.13;;;21.90;99.90;;;;;;5090477;28;20512;-51
2022/05/05 10:57:52;;;;;;;9.03;3.60;;;21.70;99.90;;;;;;5092574;28;20403;-52
2022/05/05 11:00:18;;;;;;;7.37;3.93;;;21.60;99.90;;;;;;5106287;28;20529;-55
2022/05/05 11:02:56;;;;;;;11.20;3.47;;;21.70;99.90;;;;;;5112041;27;20445;-51
2022/05/05 11:05:24;;;;;;;6.77;3.33;;;21.90;99.90;;;;;;5112351;28;20462;-52
2022/05/05 11:07:50;;;;;;;5.20;3.10;;;22.30;99.90;;;;;;5111772;28;20945;-54
2022/05/05 11:13:40;;;;;;;5.23;3.13;;;22.40;99.90;;;;;;5112008;28;20996;-52
2022/05/05 11:22:17;;;;;;;7.70;3.40;;;23.50;99.90;;;;;;5111774;28;21016;-52
2022/05/05 11:24:49;;;;;;;9.83;4.10;;;23.40;99.90;;;;;;5109975;28;20537;-53
2022/05/05 11:27:19;;;;;;;6.90;3.80;;;23.00;99.90;;;;;;5111024;28;20881;-53
2022/05/05 11:29:52;;;;;;;8.13;3.73;;;23.30;99.90;;;;;;5111732;28;20464;-52
2022/05/05 11:32:19;;;;;;;6.70;3.27;;;23.70;99.90;;;;;;5107673;28;20465;-51
2022/05/05 11:34:46;;;;;;;15.47;3.23;;;24.20;99.90;;;;;;5101987;28;20442;-51
2022/05/05 11:37:13;;;;;;;5.83;3.10;;;24.70;99.90;;;;;;5111158;28;20442;-51
2022/05/05 11:39:39;;;;;;;6.83;3.00;;;25.00;99.90;;;;;;5111629;28;20507;-51
2022/05/05 11:42:05;;;;;;;6.20;2.87;;;24.90;99.90;;;;;;5109593;28;20450;-51
2022/05/05 11:44:36;;;;;;;2.50;2.30;;;24.50;99.90;;;;;;5089324;28;20201;-51
2022/05/05 11:47:13;;;;;;;3.10;2.80;;;24.00;99.90;;;;;;5095676;28;20840;-51
2022/05/05 11:49:39;;;;;;;5.17;2.73;;;23.50;99.90;;;;;;5111632;28;20402;-51
2022/05/05 11:52:06;;;;;;;4.97;2.97;;;22.90;99.90;;;;;;5110198;27;20441;-51
2022/05/05 11:54:33;;;;;;;6.70;2.80;;;22.70;99.90;;;;;;5108366;28;21110;-53
2022/05/05 11:57:00;;;;;;;4.47;2.97;;;22.90;99.90;;;;;;5111572;28;21237;-53
2022/05/05 12:02:18;;;;;;;3.77;3.10;;;23.00;99.90;;;;;;5096674;28;20437;-53
2022/05/05 12:04:53;;;;;;;10.67;2.93;;;23.60;99.90;;;;;;5110290;28;20412;-53
2022/05/05 12:07:21;;;;;;;5.60;3.70;;;24.10;99.90;;;;;;5102360;28;20943;-53
2022/05/05 12:09:58;;;;;;;7.07;4.20;;;24.30;99.90;;;;;;5106400;28;20422;-52
2022/05/05 12:12:32;;;;;;;9.97;3.67;;;24.20;99.90;;;;;;5107258;28;20801;-52
2022/05/05 12:15:00;;;;;;;4.87;3.90;;;24.30;99.90;;;;;;5092690;27;20434;-52
2022/05/05 12:17:39;;;;;;;5.53;3.53;;;24.60;99.90;;;;;;5106207;28;20495;-52
2022/05/05 12:20:06;;;;;;;5.97;4.20;;;24.50;99.90;;;;;;5110986;28;20457;-52
2022/05/05 12:22:37;;;;;;;5.47;3.87;;;24.30;99.90;;;;;;5110338;28;20417;-53
2022/05/05 12:25:14;;;;;;;5.73;3.80;;;24.10;99.90;;;;;;5102958;28;20407;-54
2022/05/05 12:27:40;;;;;;;6.27;3.93;;;24.30;99.90;;;;;;5097410;28;20430;-53
2022/05/05 12:30:06;;;;;;;5.40;4.07;;;24.50;99.90;;;;;;5109142;28;20526;-52
2022/05/05 12:32:32;;;;;;;4.97;3.50;;;24.80;99.90;;;;;;5110696;28;20421;-52
2022/05/05 12:35:10;;;;;;;8.93;3.67;;;24.90;99.90;;;;;;5110593;28;20411;-52
2022/05/05 12:37:37;;;;;;;5.40;3.80;;;25.00;99.90;;;;;;5105690;28;20426;-52
2022/05/05 12:40:07;;;;;;;5.50;3.67;;;25.00;99.90;;;;;;5110760;28;20448;-52
2022/05/05 12:42:48;;;;;;;11.83;4.10;;;24.90;99.90;;;;;;5110513;28;20395;-52
2022/05/05 12:45:15;;;;;;;5.43;3.97;;;24.70;99.90;;;;;;5110490;28;20961;-52
2022/05/05 12:47:43;;;;;;;4.10;3.30;;;24.70;99.90;;;;;;5106922;28;20510;-52
2022/05/05 12:50:31;;;;;;;6.43;3.63;;;25.10;99.90;;;;;;5110539;28;20398;-52
2022/05/05 13:01:20;;;;;;;7.37;4.60;;;23.40;99.90;;;;;;5101460;28;20471;-51
2022/05/05 13:03:45;;;;;;;5.40;3.77;;;22.80;99.90;;;;;;5090090;28;20403;-51
2022/05/05 13:06:13;;;;;;;4.43;3.60;;;22.50;99.90;;;;;;5089896;28;20477;-51
2022/05/05 13:08:38;;;;;;;7.67;4.87;;;22.80;99.90;;;;;;5091309;28;20321;-52
2022/05/05 13:11:04;;;;;;;6.70;4.70;;;22.80;99.90;;;;;;5110202;28;20449;-51
2022/05/05 13:13:29;;;;;;;4.87;3.90;;;22.60;99.90;;;;;;5110798;28;20168;-51
2022/05/05 13:15:55;;;;;;;4.63;3.70;;;22.20;99.90;;;;;;5110750;28;20214;-52
2022/05/05 13:18:20;;;;;;;6.53;4.20;;;22.00;99.90;;;;;;5110220;28;20551;-53
2022/05/05 13:20:46;;;;;;;6.77;4.27;;;22.00;99.90;;;;;;5110661;28;20184;-51
2022/05/05 13:23:11;;;;;;;9.30;4.97;;;21.60;99.90;;;;;;5110190;28;20188;-51
2022/05/05 13:25:37;;;;;;;7.10;4.90;;;21.90;99.90;;;;;;5110068;28;20571;-51
2022/05/05 13:28:04;;;;;;;8.70;5.43;;;22.40;99.90;;;;;;5109284;28;20192;-51
2022/05/05 13:30:29;;;;;;;6.40;4.30;;;22.40;99.90;;;;;;5109110;28;20176;-51
2022/05/05 13:32:55;;;;;;;6.93;4.17;;;22.30;99.90;;;;;;5110207;28;20409;-51
2022/05/05 13:35:20;;;;;;;6.40;4.50;;;22.90;99.90;;;;;;5113932;28;20192;-51
2022/05/05 13:37:46;;;;;;;12.13;5.00;;;23.40;99.90;;;;;;5114092;28;20188;-51
2022/05/05 13:40:12;;;;;;;8.53;5.10;;;23.40;99.90;;;;;;5113808;28;20382;-51
2022/05/05 13:42:38;;;;;;;6.20;4.43;;;23.30;99.90;;;;;;5113830;28;20471;-51